sensor_id;sensor_type;location;lat;lon;timestamp;P1;durP1;ratioP1;P2;durP2;ratioP2
58760;SDS011;44529;47.464;19.014;2023-04-15T00:02:54;6.25;;;5.65;;
58760;SDS011;44529;47.464;19.014;2023-04-15T00:05:57;6.15;;;5.55;;
58760;SDS011;44529;47.464;19.014;2023-04-15T00:09:00;5.53;;;5.00;;
58760;SDS011;44529;47.464;19.014;2023-04-15T00:12:03;5.87;;;5.30;;
58760;SDS011;44529;47.464;19.014;2023-04-15T00:15:07;5.60;;;5.03;;
58760;SDS011;44529;47.464;19.014;2023-04-15T00:18:10;5.95;;;5.45;;
58760;SDS011;44529;47.464;19.014;2023-04-15T00:21:12;5.85;;;5.10;;
58760;SDS011;44529;47.464;19.014;2023-04-15T00:24:14;5.30;;;4.90;;
58760;SDS011;44529;47.464;19.014;2023-04-15T00:27:17;5.53;;;5.00;;
58760;SDS011;44529;47.464;19.014;2023-04-15T00:30:19;7.80;;;5.97;;
58760;SDS011;44529;47.464;19.014;2023-04-15T00:33:22;5.85;;;5.25;;
58760;SDS011;44529;47.464;19.014;2023-04-15T00:36:24;6.45;;;5.85;;
58760;SDS011;44529;47.464;19.014;2023-04-15T00:39:27;6.57;;;5.97;;
58760;SDS011;44529;47.464;19.014;2023-04-15T00:42:29;6.65;;;5.90;;
58760;SDS011;44529;47.464;19.014;2023-04-15T00:45:32;6.28;;;5.75;;
58760;SDS011;44529;47.464;19.014;2023-04-15T00:48:35;6.65;;;5.95;;
58760;SDS011;44529;47.464;19.014;2023-04-15T00:51:38;6.60;;;6.00;;
58760;SDS011;44529;47.464;19.014;2023-04-15T00:54:41;6.60;;;5.85;;
58760;SDS011;44529;47.464;19.014;2023-04-15T00:57:43;7.05;;;5.43;;
58760;SDS011;44529;47.464;19.014;2023-04-15T01:00:46;5.97;;;5.45;;
58760;SDS011;44529;47.464;19.014;2023-04-15T01:03:48;6.15;;;5.60;;
58760;SDS011;44529;47.464;19.014;2023-04-15T01:06:52;6.30;;;5.70;;
58760;SDS011;44529;47.464;19.014;2023-04-15T01:09:54;6.78;;;5.97;;
58760;SDS011;44529;47.464;19.014;2023-04-15T01:12:58;6.90;;;6.20;;
58760;SDS011;44529;47.464;19.014;2023-04-15T01:16:00;7.53;;;6.00;;
58760;SDS011;44529;47.464;19.014;2023-04-15T01:19:07;7.57;;;6.87;;
58760;SDS011;44529;47.464;19.014;2023-04-15T01:22:11;7.47;;;6.68;;
58760;SDS011;44529;47.464;19.014;2023-04-15T01:25:16;8.75;;;7.82;;
58760;SDS011;44529;47.464;19.014;2023-04-15T01:28:20;7.55;;;6.85;;
58760;SDS011;44529;47.464;19.014;2023-04-15T01:31:23;7.50;;;6.75;;
58760;SDS011;44529;47.464;19.014;2023-04-15T01:34:25;9.38;;;7.68;;
58760;SDS011;44529;47.464;19.014;2023-04-15T01:37:28;7.90;;;7.10;;
58760;SDS011;44529;47.464;19.014;2023-04-15T01:40:31;8.30;;;7.50;;
58760;SDS011;44529;47.464;19.014;2023-04-15T01:43:34;8.93;;;8.02;;
58760;SDS011;44529;47.464;19.014;2023-04-15T01:46:37;8.15;;;7.35;;
58760;SDS011;44529;47.464;19.014;2023-04-15T01:49:40;8.43;;;7.55;;
58760;SDS011;44529;47.464;19.014;2023-04-15T01:52:42;9.02;;;7.12;;
58760;SDS011;44529;47.464;19.014;2023-04-15T01:55:45;7.95;;;7.00;;
58760;SDS011;44529;47.464;19.014;2023-04-15T01:58:48;7.75;;;6.95;;
58760;SDS011;44529;47.464;19.014;2023-04-15T02:01:51;9.15;;;6.78;;
58760;SDS011;44529;47.464;19.014;2023-04-15T02:04:54;7.97;;;7.22;;
58760;SDS011;44529;47.464;19.014;2023-04-15T02:07:56;7.75;;;6.80;;
58760;SDS011;44529;47.464;19.014;2023-04-15T02:10:59;7.55;;;6.85;;
58760;SDS011;44529;47.464;19.014;2023-04-15T02:14:02;7.82;;;7.03;;
58760;SDS011;44529;47.464;19.014;2023-04-15T02:17:08;7.93;;;6.95;;
58760;SDS011;44529;47.464;19.014;2023-04-15T02:20:10;8.35;;;7.43;;
58760;SDS011;44529;47.464;19.014;2023-04-15T02:23:13;7.68;;;6.90;;
58760;SDS011;44529;47.464;19.014;2023-04-15T02:26:17;8.88;;;7.70;;
58760;SDS011;44529;47.464;19.014;2023-04-15T02:29:21;10.00;;;7.82;;
58760;SDS011;44529;47.464;19.014;2023-04-15T02:32:24;8.90;;;7.82;;
58760;SDS011;44529;47.464;19.014;2023-04-15T02:35:28;8.63;;;7.50;;
58760;SDS011;44529;47.464;19.014;2023-04-15T02:38:31;9.25;;;7.75;;
58760;SDS011;44529;47.464;19.014;2023-04-15T02:41:33;8.05;;;7.20;;
58760;SDS011;44529;47.464;19.014;2023-04-15T02:44:37;9.70;;;7.20;;
58760;SDS011;44529;47.464;19.014;2023-04-15T02:47:39;8.15;;;7.25;;
58760;SDS011;44529;47.464;19.014;2023-04-15T02:50:42;7.75;;;6.72;;
58760;SDS011;44529;47.464;19.014;2023-04-15T02:53:46;9.38;;;7.55;;
58760;SDS011;44529;47.464;19.014;2023-04-15T02:56:49;8.00;;;6.68;;
58760;SDS011;44529;47.464;19.014;2023-04-15T02:59:52;7.12;;;6.43;;
58760;SDS011;44529;47.464;19.014;2023-04-15T03:02:58;7.62;;;6.72;;
58760;SDS011;44529;47.464;19.014;2023-04-15T03:06:03;7.43;;;6.72;;
58760;SDS011;44529;47.464;19.014;2023-04-15T03:09:05;6.97;;;6.28;;
58760;SDS011;44529;47.464;19.014;2023-04-15T03:12:08;8.00;;;6.50;;
58760;SDS011;44529;47.464;19.014;2023-04-15T03:15:11;7.47;;;6.78;;
58760;SDS011;44529;47.464;19.014;2023-04-15T03:18:14;6.82;;;6.12;;
58760;SDS011;44529;47.464;19.014;2023-04-15T03:21:17;7.70;;;6.93;;
58760;SDS011;44529;47.464;19.014;2023-04-15T03:24:22;8.02;;;7.20;;
58760;SDS011;44529;47.464;19.014;2023-04-15T03:27:25;7.95;;;7.15;;
58760;SDS011;44529;47.464;19.014;2023-04-15T03:30:28;7.75;;;6.95;;
58760;SDS011;44529;47.464;19.014;2023-04-15T03:33:31;7.45;;;6.70;;
58760;SDS011;44529;47.464;19.014;2023-04-15T03:36:33;7.72;;;6.93;;
58760;SDS011;44529;47.464;19.014;2023-04-15T03:39:35;7.07;;;6.37;;
58760;SDS011;44529;47.464;19.014;2023-04-15T03:42:38;7.30;;;6.60;;
58760;SDS011;44529;47.464;19.014;2023-04-15T03:45:40;7.40;;;6.70;;
58760;SDS011;44529;47.464;19.014;2023-04-15T03:48:42;8.30;;;7.43;;
58760;SDS011;44529;47.464;19.014;2023-04-15T03:51:44;8.40;;;6.62;;
58760;SDS011;44529;47.464;19.014;2023-04-15T03:54:47;8.25;;;6.40;;
58760;SDS011;44529;47.464;19.014;2023-04-15T03:57:49;7.62;;;6.75;;
58760;SDS011;44529;47.464;19.014;2023-04-15T04:00:52;10.98;;;7.35;;
58760;SDS011;44529;47.464;19.014;2023-04-15T04:03:55;7.45;;;6.55;;
58760;SDS011;44529;47.464;19.014;2023-04-15T04:06:58;8.55;;;7.07;;
58760;SDS011;44529;47.464;19.014;2023-04-15T04:10:01;9.75;;;6.70;;
58760;SDS011;44529;47.464;19.014;2023-04-15T04:13:04;8.05;;;6.93;;
58760;SDS011;44529;47.464;19.014;2023-04-15T04:16:07;8.05;;;6.78;;
58760;SDS011;44529;47.464;19.014;2023-04-15T04:19:09;7.45;;;6.65;;
58760;SDS011;44529;47.464;19.014;2023-04-15T04:22:11;7.90;;;7.05;;
58760;SDS011;44529;47.464;19.014;2023-04-15T04:25:13;7.03;;;6.28;;
58760;SDS011;44529;47.464;19.014;2023-04-15T04:28:16;7.50;;;6.78;;
58760;SDS011;44529;47.464;19.014;2023-04-15T04:31:18;7.57;;;6.82;;
58760;SDS011;44529;47.464;19.014;2023-04-15T04:34:21;7.40;;;6.25;;
58760;SDS011;44529;47.464;19.014;2023-04-15T04:37:23;7.43;;;6.40;;
58760;SDS011;44529;47.464;19.014;2023-04-15T04:40:26;7.32;;;6.62;;
58760;SDS011;44529;47.464;19.014;2023-04-15T04:43:28;8.02;;;6.45;;
58760;SDS011;44529;47.464;19.014;2023-04-15T04:46:30;7.60;;;6.85;;
58760;SDS011;44529;47.464;19.014;2023-04-15T04:49:32;7.90;;;6.62;;
58760;SDS011;44529;47.464;19.014;2023-04-15T04:52:35;7.20;;;6.12;;
58760;SDS011;44529;47.464;19.014;2023-04-15T04:55:37;7.60;;;6.10;;
58760;SDS011;44529;47.464;19.014;2023-04-15T04:58:40;7.70;;;6.18;;
58760;SDS011;44529;47.464;19.014;2023-04-15T05:01:42;6.37;;;5.62;;
58760;SDS011;44529;47.464;19.014;2023-04-15T05:04:45;6.57;;;5.85;;
58760;SDS011;44529;47.464;19.014;2023-04-15T05:07:47;7.85;;;6.35;;
58760;SDS011;44529;47.464;19.014;2023-04-15T05:10:51;6.60;;;6.00;;
58760;SDS011;44529;47.464;19.014;2023-04-15T05:13:54;7.05;;;6.35;;
58760;SDS011;44529;47.464;19.014;2023-04-15T05:16:56;6.60;;;6.00;;
58760;SDS011;44529;47.464;19.014;2023-04-15T05:19:59;6.60;;;5.90;;
58760;SDS011;44529;47.464;19.014;2023-04-15T05:23:02;6.78;;;6.07;;
58760;SDS011;44529;47.464;19.014;2023-04-15T05:26:04;8.07;;;6.60;;
58760;SDS011;44529;47.464;19.014;2023-04-15T05:29:06;8.65;;;6.47;;
58760;SDS011;44529;47.464;19.014;2023-04-15T05:32:09;7.20;;;6.50;;
58760;SDS011;44529;47.464;19.014;2023-04-15T05:35:11;7.45;;;6.75;;
58760;SDS011;44529;47.464;19.014;2023-04-15T05:38:14;7.85;;;7.15;;
58760;SDS011;44529;47.464;19.014;2023-04-15T05:41:16;7.30;;;6.62;;
58760;SDS011;44529;47.464;19.014;2023-04-15T05:44:20;8.10;;;7.30;;
58760;SDS011;44529;47.464;19.014;2023-04-15T05:47:23;7.37;;;6.68;;
58760;SDS011;44529;47.464;19.014;2023-04-15T05:50:25;7.15;;;6.53;;
58760;SDS011;44529;47.464;19.014;2023-04-15T05:53:28;8.50;;;7.37;;
58760;SDS011;44529;47.464;19.014;2023-04-15T05:56:30;7.53;;;6.70;;
58760;SDS011;44529;47.464;19.014;2023-04-15T05:59:32;7.60;;;6.90;;
58760;SDS011;44529;47.464;19.014;2023-04-15T06:02:34;8.43;;;7.32;;
58760;SDS011;44529;47.464;19.014;2023-04-15T06:05:37;7.80;;;6.90;;
58760;SDS011;44529;47.464;19.014;2023-04-15T06:08:40;8.55;;;7.65;;
58760;SDS011;44529;47.464;19.014;2023-04-15T06:11:42;7.07;;;6.37;;
58760;SDS011;44529;47.464;19.014;2023-04-15T06:14:44;7.35;;;6.62;;
58760;SDS011;44529;47.464;19.014;2023-04-15T06:17:47;6.78;;;6.18;;
58760;SDS011;44529;47.464;19.014;2023-04-15T06:20:49;7.00;;;6.40;;
58760;SDS011;44529;47.464;19.014;2023-04-15T06:23:52;6.65;;;6.05;;
58760;SDS011;44529;47.464;19.014;2023-04-15T06:26:54;6.68;;;5.97;;
58760;SDS011;44529;47.464;19.014;2023-04-15T06:29:57;7.53;;;6.75;;
58760;SDS011;44529;47.464;19.014;2023-04-15T06:32:59;7.82;;;6.68;;
58760;SDS011;44529;47.464;19.014;2023-04-15T06:36:02;6.82;;;6.20;;
58760;SDS011;44529;47.464;19.014;2023-04-15T06:39:04;6.37;;;5.87;;
58760;SDS011;44529;47.464;19.014;2023-04-15T06:42:06;6.78;;;6.18;;
58760;SDS011;44529;47.464;19.014;2023-04-15T06:45:09;5.80;;;5.28;;
58760;SDS011;44529;47.464;19.014;2023-04-15T06:48:12;6.12;;;5.50;;
58760;SDS011;44529;47.464;19.014;2023-04-15T06:51:15;8.52;;;5.70;;
58760;SDS011;44529;47.464;19.014;2023-04-15T06:54:17;5.55;;;5.05;;
58760;SDS011;44529;47.464;19.014;2023-04-15T06:57:20;5.53;;;5.03;;
58760;SDS011;44529;47.464;19.014;2023-04-15T07:00:22;6.03;;;5.10;;
58760;SDS011;44529;47.464;19.014;2023-04-15T07:03:24;5.97;;;5.43;;
58760;SDS011;44529;47.464;19.014;2023-04-15T07:06:27;5.93;;;5.32;;
58760;SDS011;44529;47.464;19.014;2023-04-15T07:09:29;5.65;;;5.15;;
58760;SDS011;44529;47.464;19.014;2023-04-15T07:12:32;5.35;;;4.60;;
58760;SDS011;44529;47.464;19.014;2023-04-15T07:15:34;5.25;;;4.85;;
58760;SDS011;44529;47.464;19.014;2023-04-15T07:18:37;5.62;;;4.93;;
58760;SDS011;44529;47.464;19.014;2023-04-15T07:21:39;6.07;;;5.47;;
58760;SDS011;44529;47.464;19.014;2023-04-15T07:24:43;5.95;;;5.35;;
58760;SDS011;44529;47.464;19.014;2023-04-15T07:27:45;6.40;;;5.30;;
58760;SDS011;44529;47.464;19.014;2023-04-15T07:30:47;4.60;;;4.18;;
58760;SDS011;44529;47.464;19.014;2023-04-15T07:33:49;4.68;;;4.28;;
58760;SDS011;44529;47.464;19.014;2023-04-15T07:36:52;4.28;;;3.87;;
58760;SDS011;44529;47.464;19.014;2023-04-15T07:39:54;4.28;;;3.70;;
58760;SDS011;44529;47.464;19.014;2023-04-15T07:42:57;3.87;;;3.47;;
58760;SDS011;44529;47.464;19.014;2023-04-15T07:45:59;4.90;;;3.60;;
58760;SDS011;44529;47.464;19.014;2023-04-15T07:49:01;3.60;;;3.30;;
58760;SDS011;44529;47.464;19.014;2023-04-15T07:52:04;3.42;;;3.12;;
58760;SDS011;44529;47.464;19.014;2023-04-15T07:55:07;3.30;;;3.00;;
58760;SDS011;44529;47.464;19.014;2023-04-15T07:58:10;3.50;;;3.20;;
58760;SDS011;44529;47.464;19.014;2023-04-15T08:01:12;3.55;;;3.25;;
58760;SDS011;44529;47.464;19.014;2023-04-15T08:04:15;2.53;;;2.33;;
58760;SDS011;44529;47.464;19.014;2023-04-15T08:07:17;3.17;;;2.47;;
58760;SDS011;44529;47.464;19.014;2023-04-15T08:10:20;3.05;;;2.75;;
58760;SDS011;44529;47.464;19.014;2023-04-15T08:13:23;2.80;;;2.60;;
58760;SDS011;44529;47.464;19.014;2023-04-15T08:16:25;2.40;;;2.20;;
58760;SDS011;44529;47.464;19.014;2023-04-15T08:19:29;2.62;;;2.42;;
58760;SDS011;44529;47.464;19.014;2023-04-15T08:22:32;4.15;;;2.40;;
58760;SDS011;44529;47.464;19.014;2023-04-15T08:25:34;2.30;;;2.08;;
58760;SDS011;44529;47.464;19.014;2023-04-15T08:28:37;2.55;;;2.35;;
58760;SDS011;44529;47.464;19.014;2023-04-15T08:31:40;2.87;;;2.30;;
58760;SDS011;44529;47.464;19.014;2023-04-15T08:34:43;2.83;;;2.35;;
58760;SDS011;44529;47.464;19.014;2023-04-15T08:37:45;2.95;;;2.12;;
58760;SDS011;44529;47.464;19.014;2023-04-15T08:40:48;3.10;;;2.80;;
58760;SDS011;44529;47.464;19.014;2023-04-15T08:44:15;2.30;;;2.10;;
58760;SDS011;44529;47.464;19.014;2023-04-15T08:47:13;3.22;;;2.83;;
58760;SDS011;44529;47.464;19.014;2023-04-15T08:50:21;2.95;;;2.75;;
58760;SDS011;44529;47.464;19.014;2023-04-15T08:53:28;3.95;;;2.85;;
58760;SDS011;44529;47.464;19.014;2023-04-15T08:56:31;4.12;;;3.45;;
58760;SDS011;44529;47.464;19.014;2023-04-15T08:59:34;6.43;;;3.50;;
58760;SDS011;44529;47.464;19.014;2023-04-15T09:02:36;4.12;;;3.72;;
58760;SDS011;44529;47.464;19.014;2023-04-15T09:05:40;4.60;;;3.65;;
58760;SDS011;44529;47.464;19.014;2023-04-15T09:08:43;4.78;;;3.83;;
58760;SDS011;44529;47.464;19.014;2023-04-15T09:11:46;4.90;;;4.40;;
58760;SDS011;44529;47.464;19.014;2023-04-15T09:14:48;4.72;;;4.32;;
58760;SDS011;44529;47.464;19.014;2023-04-15T09:17:51;5.95;;;5.18;;
58760;SDS011;44529;47.464;19.014;2023-04-15T09:20:53;5.85;;;5.03;;
58760;SDS011;44529;47.464;19.014;2023-04-15T09:23:56;7.35;;;5.37;;
58760;SDS011;44529;47.464;19.014;2023-04-15T09:27:00;6.05;;;5.18;;
58760;SDS011;44529;47.464;19.014;2023-04-15T09:30:06;4.40;;;4.00;;
58760;SDS011;44529;47.464;19.014;2023-04-15T09:33:09;4.87;;;3.97;;
58760;SDS011;44529;47.464;19.014;2023-04-15T09:36:15;4.85;;;3.97;;
58760;SDS011;44529;47.464;19.014;2023-04-15T09:39:17;6.93;;;4.15;;
58760;SDS011;44529;47.464;19.014;2023-04-15T09:42:20;4.80;;;4.22;;
58760;SDS011;44529;47.464;19.014;2023-04-15T09:45:25;4.53;;;4.12;;
58760;SDS011;44529;47.464;19.014;2023-04-15T09:48:30;3.00;;;2.72;;
58760;SDS011;44529;47.464;19.014;2023-04-15T09:51:36;3.00;;;2.70;;
58760;SDS011;44529;47.464;19.014;2023-04-15T09:54:39;2.50;;;2.30;;
58760;SDS011;44529;47.464;19.014;2023-04-15T09:57:41;2.60;;;2.40;;
58760;SDS011;44529;47.464;19.014;2023-04-15T10:00:46;2.60;;;1.95;;
58760;SDS011;44529;47.464;19.014;2023-04-15T10:03:49;2.58;;;1.95;;
58760;SDS011;44529;47.464;19.014;2023-04-15T10:06:53;1.27;;;1.17;;
58760;SDS011;44529;47.464;19.014;2023-04-15T10:09:55;0.90;;;0.90;;
58760;SDS011;44529;47.464;19.014;2023-04-15T10:13:00;1.10;;;0.90;;
58760;SDS011;44529;47.464;19.014;2023-04-15T10:16:37;1.10;;;1.10;;
58760;SDS011;44529;47.464;19.014;2023-04-15T10:19:35;1.73;;;1.15;;
58760;SDS011;44529;47.464;19.014;2023-04-15T10:22:38;1.65;;;0.73;;
58760;SDS011;44529;47.464;19.014;2023-04-15T10:25:41;1.12;;;1.00;;
58760;SDS011;44529;47.464;19.014;2023-04-15T10:28:45;0.75;;;0.75;;
58760;SDS011;44529;47.464;19.014;2023-04-15T10:31:50;1.08;;;0.68;;
58760;SDS011;44529;47.464;19.014;2023-04-15T10:34:53;0.80;;;0.80;;
58760;SDS011;44529;47.464;19.014;2023-04-15T10:37:56;0.95;;;0.80;;
58760;SDS011;44529;47.464;19.014;2023-04-15T10:41:12;1.27;;;0.80;;
58760;SDS011;44529;47.464;19.014;2023-04-15T10:44:15;1.12;;;1.12;;
58760;SDS011;44529;47.464;19.014;2023-04-15T10:47:18;1.40;;;1.00;;
58760;SDS011;44529;47.464;19.014;2023-04-15T10:50:25;1.12;;;1.12;;
58760;SDS011;44529;47.464;19.014;2023-04-15T10:53:29;1.10;;;1.10;;
58760;SDS011;44529;47.464;19.014;2023-04-15T10:56:32;2.00;;;0.98;;
58760;SDS011;44529;47.464;19.014;2023-04-15T10:59:35;2.00;;;1.60;;
58760;SDS011;44529;47.464;19.014;2023-04-15T11:03:07;1.77;;;1.00;;
58760;SDS011;44529;47.464;19.014;2023-04-15T11:06:11;1.98;;;0.85;;
58760;SDS011;44529;47.464;19.014;2023-04-15T11:09:32;0.90;;;0.90;;
58760;SDS011;44529;47.464;19.014;2023-04-15T11:12:35;1.10;;;1.05;;
58760;SDS011;44529;47.464;19.014;2023-04-15T11:15:38;1.25;;;1.10;;
58760;SDS011;44529;47.464;19.014;2023-04-15T11:18:52;0.90;;;0.90;;
58760;SDS011;44529;47.464;19.014;2023-04-15T11:21:56;1.67;;;0.70;;
58760;SDS011;44529;47.464;19.014;2023-04-15T11:24:58;1.23;;;1.00;;
58760;SDS011;44529;47.464;19.014;2023-04-15T11:28:00;1.10;;;0.82;;
58760;SDS011;44529;47.464;19.014;2023-04-15T11:31:07;1.10;;;1.00;;
58760;SDS011;44529;47.464;19.014;2023-04-15T11:34:12;1.80;;;0.80;;
58760;SDS011;44529;47.464;19.014;2023-04-15T11:37:27;0.75;;;0.75;;
58760;SDS011;44529;47.464;19.014;2023-04-15T11:40:30;0.70;;;0.70;;
58760;SDS011;44529;47.464;19.014;2023-04-15T11:43:34;1.30;;;0.62;;
58760;SDS011;44529;47.464;19.014;2023-04-15T11:46:36;0.80;;;0.73;;
58760;SDS011;44529;47.464;19.014;2023-04-15T11:49:39;1.75;;;1.10;;
58760;SDS011;44529;47.464;19.014;2023-04-15T11:52:55;1.40;;;1.20;;
58760;SDS011;44529;47.464;19.014;2023-04-15T11:56:00;0.88;;;0.88;;
58760;SDS011;44529;47.464;19.014;2023-04-15T11:59:02;1.45;;;1.00;;
58760;SDS011;44529;47.464;19.014;2023-04-15T12:02:11;1.10;;;1.00;;
58760;SDS011;44529;47.464;19.014;2023-04-15T12:05:15;2.12;;;1.40;;
58760;SDS011;44529;47.464;19.014;2023-04-15T12:08:17;3.87;;;1.33;;
58760;SDS011;44529;47.464;19.014;2023-04-15T12:14:28;2.05;;;1.10;;
58760;SDS011;44529;47.464;19.014;2023-04-15T12:17:33;3.50;;;1.67;;
58760;SDS011;44529;47.464;19.014;2023-04-15T12:20:53;1.58;;;1.48;;
58760;SDS011;44529;47.464;19.014;2023-04-15T12:23:56;1.25;;;1.20;;
58760;SDS011;44529;47.464;19.014;2023-04-15T12:27:02;0.93;;;0.93;;
58760;SDS011;44529;47.464;19.014;2023-04-15T12:30:06;0.88;;;0.88;;
58760;SDS011;44529;47.464;19.014;2023-04-15T12:33:09;1.23;;;1.12;;
58760;SDS011;44529;47.464;19.014;2023-04-15T12:36:13;1.00;;;1.00;;
58760;SDS011;44529;47.464;19.014;2023-04-15T12:39:15;2.03;;;1.23;;
58760;SDS011;44529;47.464;19.014;2023-04-15T12:42:17;1.02;;;1.02;;
58760;SDS011;44529;47.464;19.014;2023-04-15T12:45:20;1.30;;;1.20;;
58760;SDS011;44529;47.464;19.014;2023-04-15T12:48:23;2.40;;;1.37;;
58760;SDS011;44529;47.464;19.014;2023-04-15T12:51:25;1.23;;;1.12;;
58760;SDS011;44529;47.464;19.014;2023-04-15T12:54:29;2.20;;;1.50;;
58760;SDS011;44529;47.464;19.014;2023-04-15T12:57:32;1.80;;;1.42;;
58760;SDS011;44529;47.464;19.014;2023-04-15T13:00:34;1.50;;;1.40;;
58760;SDS011;44529;47.464;19.014;2023-04-15T13:03:36;1.60;;;1.30;;
58760;SDS011;44529;47.464;19.014;2023-04-15T13:06:39;1.20;;;1.05;;
58760;SDS011;44529;47.464;19.014;2023-04-15T13:09:42;1.20;;;1.10;;
58760;SDS011;44529;47.464;19.014;2023-04-15T13:12:45;1.42;;;0.90;;
58760;SDS011;44529;47.464;19.014;2023-04-15T13:15:47;1.37;;;1.17;;
58760;SDS011;44529;47.464;19.014;2023-04-15T13:18:50;1.20;;;1.10;;
58760;SDS011;44529;47.464;19.014;2023-04-15T13:21:52;1.98;;;1.10;;
58760;SDS011;44529;47.464;19.014;2023-04-15T13:24:55;2.72;;;1.40;;
58760;SDS011;44529;47.464;19.014;2023-04-15T13:27:57;1.85;;;1.40;;
58760;SDS011;44529;47.464;19.014;2023-04-15T13:31:00;1.42;;;1.30;;
58760;SDS011;44529;47.464;19.014;2023-04-15T13:34:02;2.50;;;1.20;;
58760;SDS011;44529;47.464;19.014;2023-04-15T13:37:06;1.30;;;1.20;;
58760;SDS011;44529;47.464;19.014;2023-04-15T13:40:09;1.75;;;1.48;;
58760;SDS011;44529;47.464;19.014;2023-04-15T13:43:11;1.50;;;1.37;;
58760;SDS011;44529;47.464;19.014;2023-04-15T13:46:14;3.42;;;2.90;;
58760;SDS011;44529;47.464;19.014;2023-04-15T13:49:16;1.75;;;1.45;;
58760;SDS011;44529;47.464;19.014;2023-04-15T13:52:19;2.33;;;1.48;;
58760;SDS011;44529;47.464;19.014;2023-04-15T13:55:21;2.05;;;1.90;;
58760;SDS011;44529;47.464;19.014;2023-04-15T13:58:26;2.10;;;2.00;;
58760;SDS011;44529;47.464;19.014;2023-04-15T14:01:29;2.25;;;2.00;;
58760;SDS011;44529;47.464;19.014;2023-04-15T14:04:32;2.22;;;2.00;;
58760;SDS011;44529;47.464;19.014;2023-04-15T14:07:34;1.95;;;1.80;;
58760;SDS011;44529;47.464;19.014;2023-04-15T14:10:37;2.28;;;1.27;;
58760;SDS011;44529;47.464;19.014;2023-04-15T14:13:39;2.55;;;1.70;;
58760;SDS011;44529;47.464;19.014;2023-04-15T14:16:42;1.33;;;1.20;;
58760;SDS011;44529;47.464;19.014;2023-04-15T14:19:44;2.47;;;1.20;;
58760;SDS011;44529;47.464;19.014;2023-04-15T14:22:47;1.37;;;1.27;;
58760;SDS011;44529;47.464;19.014;2023-04-15T14:25:49;3.03;;;1.35;;
58760;SDS011;44529;47.464;19.014;2023-04-15T14:28:53;2.17;;;1.67;;
58760;SDS011;44529;47.464;19.014;2023-04-15T14:31:55;1.95;;;1.75;;
58760;SDS011;44529;47.464;19.014;2023-04-15T14:35:13;2.05;;;1.50;;
58760;SDS011;44529;47.464;19.014;2023-04-15T14:38:16;1.85;;;1.33;;
58760;SDS011;44529;47.464;19.014;2023-04-15T14:41:18;3.97;;;1.60;;
58760;SDS011;44529;47.464;19.014;2023-04-15T14:44:20;5.45;;;3.95;;
58760;SDS011;44529;47.464;19.014;2023-04-15T14:47:23;5.55;;;3.60;;
58760;SDS011;44529;47.464;19.014;2023-04-15T14:50:25;3.95;;;3.37;;
58760;SDS011;44529;47.464;19.014;2023-04-15T14:53:28;3.62;;;3.30;;
58760;SDS011;44529;47.464;19.014;2023-04-15T14:56:30;4.95;;;3.10;;
58760;SDS011;44529;47.464;19.014;2023-04-15T14:59:33;4.03;;;3.12;;
58760;SDS011;44529;47.464;19.014;2023-04-15T15:02:35;3.33;;;3.03;;
58760;SDS011;44529;47.464;19.014;2023-04-15T15:05:41;2.78;;;2.30;;
58760;SDS011;44529;47.464;19.014;2023-04-15T15:08:46;2.40;;;2.20;;
58760;SDS011;44529;47.464;19.014;2023-04-15T15:11:48;1.92;;;1.80;;
58760;SDS011;44529;47.464;19.014;2023-04-15T15:14:50;1.80;;;1.70;;
58760;SDS011;44529;47.464;19.014;2023-04-15T15:17:53;2.33;;;1.73;;
58760;SDS011;44529;47.464;19.014;2023-04-15T15:20:55;1.58;;;1.15;;
58760;SDS011;44529;47.464;19.014;2023-04-15T15:23:58;1.67;;;1.58;;
58760;SDS011;44529;47.464;19.014;2023-04-15T15:27:00;1.40;;;1.30;;
58760;SDS011;44529;47.464;19.014;2023-04-15T15:30:04;2.00;;;1.77;;
58760;SDS011;44529;47.464;19.014;2023-04-15T15:33:07;1.77;;;1.48;;
58760;SDS011;44529;47.464;19.014;2023-04-15T15:36:10;1.60;;;1.40;;
58760;SDS011;44529;47.464;19.014;2023-04-15T15:39:12;1.70;;;1.60;;
58760;SDS011;44529;47.464;19.014;2023-04-15T15:42:15;2.12;;;1.87;;
58760;SDS011;44529;47.464;19.014;2023-04-15T15:45:19;1.87;;;1.70;;
58760;SDS011;44529;47.464;19.014;2023-04-15T15:48:22;2.00;;;1.90;;
58760;SDS011;44529;47.464;19.014;2023-04-15T15:51:24;2.97;;;2.67;;
58760;SDS011;44529;47.464;19.014;2023-04-15T15:54:28;4.78;;;2.70;;
58760;SDS011;44529;47.464;19.014;2023-04-15T15:57:30;3.25;;;2.50;;
58760;SDS011;44529;47.464;19.014;2023-04-15T16:00:33;3.47;;;2.80;;
58760;SDS011;44529;47.464;19.014;2023-04-15T16:03:36;3.62;;;3.10;;
58760;SDS011;44529;47.464;19.014;2023-04-15T16:06:38;4.18;;;3.40;;
58760;SDS011;44529;47.464;19.014;2023-04-15T16:09:41;3.65;;;3.28;;
58760;SDS011;44529;47.464;19.014;2023-04-15T16:12:44;4.95;;;3.20;;
58760;SDS011;44529;47.464;19.014;2023-04-15T16:15:47;4.53;;;3.97;;
58760;SDS011;44529;47.464;19.014;2023-04-15T16:18:51;5.00;;;3.70;;
58760;SDS011;44529;47.464;19.014;2023-04-15T16:21:53;4.82;;;4.32;;
58760;SDS011;44529;47.464;19.014;2023-04-15T16:24:55;4.95;;;4.32;;
58760;SDS011;44529;47.464;19.014;2023-04-15T16:27:58;4.15;;;3.75;;
58760;SDS011;44529;47.464;19.014;2023-04-15T16:31:12;4.35;;;3.40;;
58760;SDS011;44529;47.464;19.014;2023-04-15T16:34:15;5.37;;;3.50;;
58760;SDS011;44529;47.464;19.014;2023-04-15T16:37:19;7.12;;;3.97;;
58760;SDS011;44529;47.464;19.014;2023-04-15T16:40:22;3.90;;;3.37;;
58760;SDS011;44529;47.464;19.014;2023-04-15T16:43:24;4.80;;;3.55;;
58760;SDS011;44529;47.464;19.014;2023-04-15T16:46:27;5.53;;;3.83;;
58760;SDS011;44529;47.464;19.014;2023-04-15T16:49:30;6.30;;;4.30;;
58760;SDS011;44529;47.464;19.014;2023-04-15T16:52:32;4.57;;;3.80;;
58760;SDS011;44529;47.464;19.014;2023-04-15T16:55:35;4.75;;;4.32;;
58760;SDS011;44529;47.464;19.014;2023-04-15T16:58:37;5.57;;;4.00;;
58760;SDS011;44529;47.464;19.014;2023-04-15T17:01:39;8.25;;;4.20;;
58760;SDS011;44529;47.464;19.014;2023-04-15T17:04:42;5.43;;;4.30;;
58760;SDS011;44529;47.464;19.014;2023-04-15T17:07:44;4.32;;;3.90;;
58760;SDS011;44529;47.464;19.014;2023-04-15T17:10:47;4.65;;;4.20;;
58760;SDS011;44529;47.464;19.014;2023-04-15T17:13:49;4.93;;;4.15;;
58760;SDS011;44529;47.464;19.014;2023-04-15T17:16:52;6.12;;;4.15;;
58760;SDS011;44529;47.464;19.014;2023-04-15T17:19:54;8.20;;;5.10;;
58760;SDS011;44529;47.464;19.014;2023-04-15T17:22:56;8.88;;;5.07;;
58760;SDS011;44529;47.464;19.014;2023-04-15T17:25:59;5.82;;;4.60;;
58760;SDS011;44529;47.464;19.014;2023-04-15T17:29:01;4.37;;;3.97;;
58760;SDS011;44529;47.464;19.014;2023-04-15T17:32:04;5.15;;;4.00;;
58760;SDS011;44529;47.464;19.014;2023-04-15T17:35:07;4.70;;;3.67;;
58760;SDS011;44529;47.464;19.014;2023-04-15T17:38:09;4.93;;;3.72;;
58760;SDS011;44529;47.464;19.014;2023-04-15T17:41:12;6.78;;;4.18;;
58760;SDS011;44529;47.464;19.014;2023-04-15T17:44:14;4.95;;;4.25;;
58760;SDS011;44529;47.464;19.014;2023-04-15T17:47:17;4.72;;;3.80;;
58760;SDS011;44529;47.464;19.014;2023-04-15T17:50:19;4.28;;;3.60;;
58760;SDS011;44529;47.464;19.014;2023-04-15T17:53:21;4.25;;;3.85;;
58760;SDS011;44529;47.464;19.014;2023-04-15T17:56:23;4.62;;;4.22;;
58760;SDS011;44529;47.464;19.014;2023-04-15T17:59:29;4.62;;;4.07;;
58760;SDS011;44529;47.464;19.014;2023-04-15T18:02:31;5.97;;;4.70;;
58760;SDS011;44529;47.464;19.014;2023-04-15T18:05:38;5.28;;;4.47;;
58760;SDS011;44529;47.464;19.014;2023-04-15T18:08:43;5.68;;;4.97;;
58760;SDS011;44529;47.464;19.014;2023-04-15T18:11:45;5.12;;;4.62;;